createdAt,value
2019-03-03T00:01:10.018Z,6.45
2019-03-03T00:03:39.273Z,6.50
2019-03-03T00:06:08.500Z,6.57
2019-03-03T00:08:38.020Z,6.66
2019-03-03T00:11:07.283Z,6.74
2019-03-03T00:13:36.556Z,6.78
2019-03-03T00:16:06.053Z,6.82
2019-03-03T00:18:35.332Z,6.74
2019-03-03T00:21:04.566Z,6.81
2019-03-03T00:23:33.879Z,6.78
2019-03-03T00:26:03.593Z,6.77
2019-03-03T00:28:32.837Z,6.78
2019-03-03T00:31:02.090Z,6.71
2019-03-03T00:33:31.340Z,6.63
2019-03-03T00:36:00.560Z,6.50
2019-03-03T00:38:39.118Z,6.53
2019-03-03T00:41:22.856Z,6.46
2019-03-03T00:44:08.037Z,6.55
2019-03-03T00:46:52.481Z,6.58
2019-03-03T00:49:34.038Z,6.60
2019-03-03T00:52:30.840Z,6.62
2019-03-03T00:55:10.068Z,6.54
2019-03-03T00:58:02.457Z,6.48
2019-03-03T01:00:54.755Z,6.46
2019-03-03T01:03:48.924Z,6.51
2019-03-03T01:06:46.083Z,6.44
2019-03-03T01:09:51.570Z,6.46
2019-03-03T01:12:38.522Z,6.41
2019-03-03T01:15:16.221Z,6.49
2019-03-03T01:18:16.448Z,6.51
2019-03-03T01:21:10.574Z,6.49
2019-03-03T01:23:47.785Z,6.51
2019-03-03T01:26:17.034Z,6.59
2019-03-03T01:28:46.285Z,6.62
2019-03-03T01:31:15.538Z,6.62
2019-03-03T01:33:44.769Z,6.60
2019-03-03T01:36:14.156Z,6.66
2019-03-03T01:38:43.390Z,6.67
2019-03-03T01:41:12.650Z,6.72
2019-03-03T01:43:41.872Z,6.80
2019-03-03T01:46:11.158Z,6.77
2019-03-03T01:48:40.494Z,6.65
2019-03-03T01:51:09.805Z,6.56
2019-03-03T01:53:39.023Z,6.48
2019-03-03T01:56:08.282Z,6.52
2019-03-03T01:58:37.521Z,6.58
2019-03-03T02:01:06.818Z,6.54
2019-03-03T02:03:36.469Z,6.54
2019-03-03T02:06:06.914Z,6.58
2019-03-03T02:08:36.142Z,6.63
2019-03-03T02:11:05.625Z,6.49
2019-03-03T02:13:36.962Z,6.44
2019-03-03T02:16:09.573Z,6.33
2019-03-03T02:18:38.798Z,6.23
2019-03-03T02:21:08.101Z,6.25
2019-03-03T02:23:37.346Z,6.26
2019-03-03T02:26:06.585Z,6.20
2019-03-03T02:28:35.879Z,6.24
2019-03-03T02:31:05.174Z,6.29
2019-03-03T02:33:34.416Z,6.36
2019-03-03T02:36:03.654Z,6.35
2019-03-03T02:38:32.973Z,6.43
2019-03-03T02:41:02.235Z,6.45
2019-03-03T02:43:38.927Z,6.36
2019-03-03T02:46:08.158Z,6.31
2019-03-03T02:48:37.407Z,6.28
2019-03-03T02:51:06.694Z,6.21
2019-03-03T02:53:35.914Z,6.24
2019-03-03T02:56:05.177Z,6.21
2019-03-03T02:58:34.404Z,6.18
2019-03-03T03:01:21.241Z,6.23
2019-03-03T03:03:50.491Z,6.21
2019-03-03T03:06:27.627Z,6.16
2019-03-03T03:09:14.687Z,6.09
2019-03-03T03:12:11.934Z,6.08
2019-03-03T03:14:52.818Z,6.12
2019-03-03T03:17:43.942Z,6.26
2019-03-03T03:20:26.436Z,6.33
2019-03-03T03:23:04.418Z,6.42
2019-03-03T03:26:04.653Z,6.39
2019-03-03T03:28:41.692Z,6.44
2019-03-03T03:31:24.916Z,6.44
2019-03-03T03:34:25.321Z,6.49
2019-03-03T03:37:04.902Z,6.47
2019-03-03T03:39:40.189Z,6.54
2019-03-03T03:42:37.736Z,6.72
2019-03-03T03:45:21.786Z,6.78
2019-03-03T03:48:12.845Z,6.81
2019-03-03T03:51:08.912Z,6.89
2019-03-03T03:53:57.120Z,6.94
2019-03-03T03:56:51.654Z,6.99
2019-03-03T03:59:32.352Z,7.01
2019-03-03T04:02:19.945Z,6.96
2019-03-03T04:05:06.872Z,6.93
2019-03-03T04:07:42.568Z,7.05
2019-03-03T04:10:20.405Z,7.05
2019-03-03T04:13:17.213Z,7.04
2019-03-03T04:16:03.945Z,7.04
2019-03-03T04:18:52.168Z,7.02
2019-03-03T04:21:38.935Z,6.98
2019-03-03T04:24:42.399Z,7.09
2019-03-03T04:27:33.435Z,7.18
2019-03-03T04:30:30.498Z,7.20
2019-03-03T04:33:06.975Z,7.11
2019-03-03T04:35:55.328Z,7.17
2019-03-03T04:38:44.455Z,7.08
2019-03-03T04:41:24.824Z,7.15
2019-03-03T04:44:18.920Z,7.08
2019-03-03T04:47:16.133Z,6.96
2019-03-03T04:50:14.659Z,6.87
2019-03-03T04:52:55.949Z,6.81
2019-03-03T04:55:59.245Z,6.71
2019-03-03T04:58:46.020Z,6.72
2019-03-03T05:01:32.734Z,6.64
2019-03-03T05:04:11.508Z,6.59
2019-03-03T05:07:02.261Z,6.60
2019-03-03T05:09:49.226Z,6.55
2019-03-03T05:12:47.356Z,6.62
2019-03-03T05:15:51.795Z,6.64
2019-03-03T05:18:37.657Z,6.75
2019-03-03T05:21:06.884Z,6.81
2019-03-03T05:23:36.133Z,6.75
2019-03-03T05:26:07.365Z,6.79
2019-03-03T05:28:36.654Z,6.88
2019-03-03T05:31:05.903Z,6.92
2019-03-03T05:33:35.187Z,6.89
2019-03-03T05:36:04.446Z,6.90
2019-03-03T05:38:33.747Z,6.98
2019-03-03T05:41:03.019Z,6.98
2019-03-03T05:43:32.257Z,6.98
2019-03-03T05:46:01.504Z,6.95
2019-03-03T05:48:30.721Z,7.00
2019-03-03T05:51:00.097Z,7.12
2019-03-03T05:53:29.339Z,7.08
2019-03-03T05:55:58.631Z,7.11
2019-03-03T05:58:27.889Z,7.13
2019-03-03T06:00:57.142Z,7.14
2019-03-03T06:03:26.432Z,7.24
2019-03-03T06:05:56.246Z,7.27
2019-03-03T06:08:25.492Z,7.24
2019-03-03T06:10:54.785Z,7.13
2019-03-03T06:13:24.748Z,7.15
2019-03-03T06:15:53.992Z,7.21
2019-03-03T06:18:23.539Z,7.24
2019-03-03T06:20:52.791Z,7.29
2019-03-03T06:23:22.046Z,7.22
2019-03-03T06:25:51.398Z,7.16
2019-03-03T06:28:20.667Z,7.21
2019-03-03T06:30:50.061Z,7.31
2019-03-03T06:33:19.296Z,7.34
2019-03-03T06:35:48.539Z,7.37
2019-03-03T06:38:17.788Z,7.48
2019-03-03T06:40:47.053Z,7.58
2019-03-03T06:43:16.265Z,7.64
2019-03-03T06:45:45.596Z,7.74
2019-03-03T06:48:14.840Z,7.90
2019-03-03T06:50:44.087Z,8.02
2019-03-03T06:53:13.588Z,8.14
2019-03-03T06:55:42.858Z,8.35
2019-03-03T06:58:12.160Z,8.47
2019-03-03T07:00:41.623Z,8.64
2019-03-03T07:03:10.902Z,8.58
2019-03-03T07:05:40.144Z,8.54
2019-03-03T07:08:09.403Z,8.46
2019-03-03T07:10:38.703Z,8.52
2019-03-03T07:13:08.292Z,8.86
2019-03-03T07:15:37.536Z,9.04
2019-03-03T07:18:06.760Z,9.27
2019-03-03T07:20:36.042Z,9.35
2019-03-03T07:23:05.280Z,9.58
2019-03-03T07:25:34.546Z,9.67
2019-03-03T07:28:04.091Z,9.66
2019-03-03T07:30:33.363Z,9.64
2019-03-03T07:33:13.783Z,9.75
2019-03-03T07:35:43.220Z,9.76
2019-03-03T07:38:12.469Z,9.84
2019-03-03T07:40:42.145Z,9.92
2019-03-03T07:43:11.388Z,10.04
2019-03-03T07:45:40.623Z,10.21
2019-03-03T07:48:09.884Z,10.28
2019-03-03T07:50:39.111Z,10.34
2019-03-03T07:53:08.429Z,10.48
2019-03-03T07:55:37.660Z,10.47
2019-03-03T07:58:06.906Z,10.45
2019-03-03T08:00:36.896Z,10.53
2019-03-03T08:03:06.153Z,10.49
2019-03-03T08:05:35.401Z,10.53
2019-03-03T08:08:04.660Z,10.42
2019-03-03T08:10:33.940Z,10.28
2019-03-03T08:13:09.160Z,10.55
2019-03-03T08:15:36.450Z,11.31
2019-03-03T08:18:05.791Z,11.54
2019-03-03T08:20:35.051Z,11.50
2019-03-03T08:23:04.830Z,11.47
2019-03-03T08:25:34.077Z,11.23
2019-03-03T08:28:03.351Z,11.14
2019-03-03T08:30:32.586Z,10.96
2019-03-03T08:33:01.842Z,10.69
2019-03-03T08:35:31.087Z,10.50
2019-03-03T08:38:00.330Z,10.38
2019-03-03T08:40:29.559Z,10.38
2019-03-03T08:43:12.583Z,10.34
2019-03-03T08:45:51.270Z,10.20
2019-03-03T08:48:27.399Z,10.12
2019-03-03T08:51:21.491Z,10.16
2019-03-03T08:54:15.647Z,10.12
2019-03-03T08:57:03.870Z,10.17
2019-03-03T08:59:55.746Z,10.19
2019-03-03T09:02:42.787Z,10.27
2019-03-03T09:05:31.159Z,10.22
2019-03-03T09:08:18.083Z,10.26
2019-03-03T09:11:04.942Z,10.45
2019-03-03T09:13:49.391Z,10.65
2019-03-03T09:16:30.453Z,10.79
2019-03-03T09:19:24.573Z,11.35
2019-03-03T09:22:18.564Z,12.00
2019-03-03T09:25:07.691Z,13.10
2019-03-03T09:27:57.246Z,14.45
2019-03-03T09:30:51.324Z,16.05
2019-03-03T09:33:39.514Z,17.46
2019-03-03T09:36:26.273Z,19.18
2019-03-03T09:39:20.002Z,18.59
2019-03-03T09:41:59.167Z,17.78
2019-03-03T09:45:02.497Z,19.01
2019-03-03T09:47:53.270Z,20.17
2019-03-03T09:50:44.360Z,20.77
2019-03-03T09:53:25.071Z,19.28
2019-03-03T09:56:04.688Z,17.52
2019-03-03T09:59:04.999Z,16.40
2019-03-03T10:01:55.611Z,15.49
2019-03-03T10:04:36.104Z,16.02
2019-03-03T10:07:29.754Z,17.21
2019-03-03T10:10:30.032Z,17.81
2019-03-03T10:13:06.130Z,16.35
2019-03-03T10:15:46.077Z,16.40
2019-03-03T10:18:34.561Z,14.78
2019-03-03T10:21:18.473Z,14.63
2019-03-03T10:23:59.791Z,14.70
2019-03-03T10:27:00.047Z,15.07
2019-03-03T10:29:46.918Z,14.99
2019-03-03T10:32:31.530Z,14.47
2019-03-03T10:35:19.856Z,14.26
2019-03-03T10:38:16.968Z,13.91
2019-03-03T10:40:53.953Z,13.42
2019-03-03T10:43:32.911Z,12.60
2019-03-03T10:46:33.091Z,12.53
2019-03-03T10:49:27.507Z,12.09
2019-03-03T10:52:17.429Z,12.02
2019-03-03T10:54:54.529Z,12.00
2019-03-03T10:57:38.690Z,11.94
2019-03-03T11:00:44.108Z,11.81
2019-03-03T11:03:23.352Z,11.85
2019-03-03T11:06:20.612Z,11.75
2019-03-03T11:09:08.808Z,11.76
2019-03-03T11:11:59.740Z,11.71
2019-03-03T11:14:38.974Z,11.89
2019-03-03T11:17:25.656Z,12.02
2019-03-03T11:20:13.859Z,11.89
2019-03-03T11:23:02.229Z,12.06
2019-03-03T11:25:53.562Z,11.95
2019-03-03T11:28:40.463Z,11.86
2019-03-03T11:31:25.217Z,11.89
2019-03-03T11:34:16.427Z,12.07
2019-03-03T11:36:53.712Z,12.10
2019-03-03T11:39:40.590Z,12.26
2019-03-03T11:42:22.584Z,12.32
2019-03-03T11:45:26.333Z,12.38
2019-03-03T11:48:04.597Z,12.43
2019-03-03T11:50:46.229Z,12.30
2019-03-03T11:53:52.603Z,12.32
2019-03-03T11:56:29.269Z,12.31
2019-03-03T11:59:32.532Z,12.32
2019-03-03T12:02:20.739Z,12.35
2019-03-03T12:05:09.792Z,12.26
2019-03-03T12:08:05.490Z,12.38
2019-03-03T12:11:02.757Z,12.37
2019-03-03T12:13:41.133Z,12.45
2019-03-03T12:16:44.387Z,12.53
2019-03-03T12:19:44.399Z,12.53
2019-03-03T12:22:31.319Z,12.49
2019-03-03T12:25:15.192Z,12.79
2019-03-03T12:28:02.403Z,12.76
2019-03-03T12:30:48.752Z,12.80
2019-03-03T12:33:35.776Z,12.91
2019-03-03T12:36:19.879Z,12.83
2019-03-03T12:39:07.433Z,13.00
2019-03-03T12:42:03.643Z,12.89
2019-03-03T12:44:47.536Z,12.92
2019-03-03T12:47:41.840Z,13.01
2019-03-03T12:50:30.045Z,12.81
2019-03-03T12:53:18.232Z,12.43
2019-03-03T12:55:58.597Z,12.63
2019-03-03T12:58:46.793Z,12.57
2019-03-03T13:01:38.411Z,12.51
2019-03-03T13:04:44.668Z,12.50
2019-03-03T13:07:35.299Z,12.60
2019-03-03T13:10:17.137Z,12.86
2019-03-03T13:13:04.075Z,12.75
2019-03-03T13:16:04.566Z,12.92
2019-03-03T13:19:01.730Z,12.97
2019-03-03T13:21:51.536Z,12.97
2019-03-03T13:24:30.161Z,12.67
2019-03-03T13:27:24.161Z,12.70
2019-03-03T13:30:05.435Z,12.76
2019-03-03T13:33:09.311Z,13.03
2019-03-03T13:36:03.412Z,13.16
2019-03-03T13:38:51.645Z,13.48
2019-03-03T13:41:38.329Z,14.02
2019-03-03T13:44:07.605Z,14.34
2019-03-03T13:46:36.851Z,14.29
2019-03-03T13:49:06.135Z,14.72
2019-03-03T13:51:35.379Z,15.00
2019-03-03T13:54:06.480Z,14.95
2019-03-03T13:56:35.894Z,14.74
2019-03-03T13:59:05.470Z,14.35
2019-03-03T14:01:34.708Z,13.84
2019-03-03T14:04:03.997Z,13.55
2019-03-03T14:06:33.337Z,13.40
2019-03-03T14:09:02.634Z,13.55
2019-03-03T14:11:32.137Z,13.57
2019-03-03T14:14:01.658Z,13.70
2019-03-03T14:16:31.114Z,13.95
2019-03-03T14:19:00.393Z,13.86
2019-03-03T14:21:29.639Z,13.96
2019-03-03T14:23:58.918Z,14.21
2019-03-03T14:26:28.188Z,14.11
2019-03-03T14:28:57.446Z,14.06
2019-03-03T14:31:26.994Z,14.31
2019-03-03T14:33:56.264Z,14.22
2019-03-03T14:36:25.517Z,13.97
2019-03-03T14:38:54.929Z,13.89
2019-03-03T14:41:24.136Z,13.77
2019-03-03T14:43:53.368Z,13.76
2019-03-03T14:46:23.129Z,13.65
2019-03-03T14:48:52.439Z,13.68
2019-03-03T14:51:21.974Z,13.73
2019-03-03T14:53:51.241Z,13.40
2019-03-03T14:56:20.634Z,13.59
2019-03-03T14:58:49.961Z,13.41
2019-03-03T15:01:19.221Z,13.33
2019-03-03T15:03:48.455Z,13.38
2019-03-03T15:06:24.406Z,13.30
2019-03-03T15:08:48.700Z,13.28
2019-03-03T15:11:18.018Z,13.27
2019-03-03T15:13:47.262Z,13.26
2019-03-03T15:16:19.013Z,13.26
2019-03-03T15:18:49.120Z,13.08
2019-03-03T15:21:25.044Z,12.98
2019-03-03T15:23:49.411Z,12.90
2019-03-03T15:26:19.223Z,12.90
2019-03-03T15:28:48.482Z,12.87
2019-03-03T15:31:17.772Z,12.94
2019-03-03T15:33:47.014Z,12.78
2019-03-03T15:36:16.291Z,12.77
2019-03-03T15:38:45.574Z,12.82
2019-03-03T15:41:14.841Z,12.83
2019-03-03T15:43:44.111Z,12.84
2019-03-03T15:46:13.405Z,12.81
2019-03-03T15:48:42.641Z,12.75
2019-03-03T15:51:11.997Z,12.83
2019-03-03T15:53:41.225Z,12.86
2019-03-03T15:56:10.476Z,12.86
2019-03-03T15:58:39.705Z,12.80
2019-03-03T16:01:14.702Z,12.73
2019-03-03T16:03:43.956Z,12.59
2019-03-03T16:06:13.201Z,12.58
2019-03-03T16:08:42.428Z,12.48
2019-03-03T16:11:12.009Z,12.53
2019-03-03T16:13:41.246Z,12.55
2019-03-03T16:16:11.502Z,12.57
2019-03-03T16:18:40.748Z,12.62
2019-03-03T16:21:10.040Z,12.58
2019-03-03T16:23:39.256Z,12.58
2019-03-03T16:26:08.521Z,12.50
2019-03-03T16:28:37.796Z,12.48
2019-03-03T16:31:07.111Z,12.48
2019-03-03T16:33:36.390Z,12.52
2019-03-03T16:36:06.048Z,12.47
2019-03-03T16:38:35.302Z,12.35
2019-03-03T16:41:04.555Z,12.26
2019-03-03T16:43:33.789Z,12.18
2019-03-03T16:46:03.046Z,12.07
2019-03-03T16:48:32.311Z,12.01
2019-03-03T16:51:01.542Z,11.95
2019-03-03T16:53:30.964Z,11.91
2019-03-03T16:56:00.324Z,11.81
2019-03-03T16:58:29.960Z,11.67
2019-03-03T17:00:59.187Z,11.54
2019-03-03T17:03:28.633Z,11.49
2019-03-03T17:05:57.990Z,11.46
2019-03-03T17:08:27.518Z,11.44
2019-03-03T17:10:57.217Z,11.38
2019-03-03T17:13:26.824Z,11.42
2019-03-03T17:15:56.056Z,11.43
2019-03-03T17:18:25.301Z,11.45
2019-03-03T17:20:54.548Z,11.50
2019-03-03T17:23:23.881Z,11.52
2019-03-03T17:25:53.177Z,11.60
2019-03-03T17:28:22.501Z,11.60
2019-03-03T17:30:51.722Z,11.62
2019-03-03T17:33:21.679Z,11.63
2019-03-03T17:35:50.921Z,11.61
2019-03-03T17:38:20.192Z,11.57
2019-03-03T17:40:49.464Z,11.57
2019-03-03T17:43:18.713Z,11.46
2019-03-03T17:45:47.992Z,11.32
2019-03-03T17:48:17.324Z,11.20
2019-03-03T17:50:46.512Z,11.03
2019-03-03T17:53:15.755Z,10.90
2019-03-03T17:55:45.330Z,10.82
2019-03-03T17:58:14.684Z,10.69
2019-03-03T18:00:45.223Z,10.59
2019-03-03T18:03:14.453Z,10.46
2019-03-03T18:05:43.732Z,10.37
2019-03-03T18:08:12.961Z,10.24
2019-03-03T18:10:42.232Z,10.12
2019-03-03T18:13:11.454Z,10.06
2019-03-03T18:15:40.755Z,10.00
2019-03-03T18:18:09.980Z,9.92
2019-03-03T18:20:39.335Z,9.87
2019-03-03T18:23:08.601Z,9.80
2019-03-03T18:25:37.856Z,9.79
2019-03-03T18:28:07.089Z,9.78
2019-03-03T18:30:36.366Z,9.77
2019-03-03T18:33:05.597Z,9.82
2019-03-03T18:35:34.835Z,9.71
2019-03-03T18:38:04.348Z,9.67
2019-03-03T18:40:33.586Z,9.76
2019-03-03T18:43:03.020Z,9.66
2019-03-03T18:45:32.337Z,9.61
2019-03-03T18:48:01.556Z,9.60
2019-03-03T18:50:30.797Z,9.49
2019-03-03T18:53:00.286Z,9.43
2019-03-03T18:55:29.754Z,9.31
2019-03-03T18:57:58.976Z,9.24
2019-03-03T19:00:28.753Z,9.28
2019-03-03T19:02:58.495Z,9.27
2019-03-03T19:05:28.077Z,9.21
2019-03-03T19:07:57.298Z,9.01
2019-03-03T19:10:26.822Z,8.90
2019-03-03T19:12:56.278Z,8.85
2019-03-03T19:15:25.728Z,8.83
2019-03-03T19:17:54.970Z,8.81
2019-03-03T19:20:24.205Z,8.85
2019-03-03T19:22:53.434Z,8.95
2019-03-03T19:25:22.703Z,8.96
2019-03-03T19:27:51.939Z,8.98
2019-03-03T19:30:22.831Z,9.00
2019-03-03T19:33:05.047Z,9.04
2019-03-03T19:35:34.282Z,9.03
2019-03-03T19:38:03.508Z,9.10
2019-03-03T19:40:32.868Z,9.12
2019-03-03T19:43:02.097Z,9.16
2019-03-03T19:45:32.988Z,9.11
2019-03-03T19:48:02.227Z,9.16
2019-03-03T19:50:31.904Z,9.10
2019-03-03T19:53:01.421Z,9.14
2019-03-03T19:55:30.680Z,9.06
2019-03-03T19:57:59.900Z,9.07
2019-03-03T20:00:35.327Z,9.08
2019-03-03T20:03:02.486Z,8.94
2019-03-03T20:05:31.777Z,8.97
2019-03-03T20:08:01.000Z,9.00
2019-03-03T20:10:30.304Z,9.01
2019-03-03T20:12:59.526Z,8.97
2019-03-03T20:15:28.788Z,8.98
2019-03-03T20:17:58.037Z,8.99
2019-03-03T20:20:27.259Z,8.96
2019-03-03T20:22:56.507Z,8.91
2019-03-03T20:25:26.424Z,8.96
2019-03-03T20:27:55.663Z,8.97
2019-03-03T20:30:25.268Z,8.92
2019-03-03T20:32:54.533Z,8.84
2019-03-03T20:35:24.591Z,8.84
2019-03-03T20:37:53.836Z,8.75
2019-03-03T20:40:23.129Z,8.72
2019-03-03T20:42:52.427Z,8.71
2019-03-03T20:45:22.929Z,8.68
2019-03-03T20:47:52.184Z,8.71
2019-03-03T20:50:21.970Z,8.67
2019-03-03T20:52:51.326Z,8.56
2019-03-03T20:55:20.896Z,8.49
2019-03-03T20:57:50.153Z,8.40
2019-03-03T21:00:21.199Z,8.31
2019-03-03T21:02:50.493Z,8.29
2019-03-03T21:05:19.811Z,8.25
2019-03-03T21:07:51.704Z,8.21
2019-03-03T21:10:21.399Z,8.20
2019-03-03T21:12:50.676Z,8.10
2019-03-03T21:15:19.883Z,8.15
2019-03-03T21:17:49.123Z,8.11
2019-03-03T21:20:18.969Z,8.06
2019-03-03T21:22:48.256Z,7.95
2019-03-03T21:25:17.687Z,7.89
2019-03-03T21:27:48.954Z,7.87
2019-03-03T21:30:19.944Z,7.84
2019-03-03T21:32:49.418Z,7.74
2019-03-03T21:35:18.734Z,7.75
2019-03-03T21:37:48.042Z,7.70
2019-03-03T21:40:18.460Z,7.65
2019-03-03T21:42:47.747Z,7.58
2019-03-03T21:45:18.240Z,7.61
2019-03-03T21:47:47.495Z,7.67
2019-03-03T21:50:18.401Z,7.75
2019-03-03T21:52:47.636Z,7.76
2019-03-03T21:55:16.889Z,7.82
2019-03-03T21:57:47.549Z,7.83
2019-03-03T22:00:28.535Z,7.87
2019-03-03T22:02:58.032Z,7.93
2019-03-03T22:05:27.581Z,7.96
2019-03-03T22:07:56.871Z,8.02
2019-03-03T22:10:35.044Z,8.05
2019-03-03T22:13:06.415Z,8.05
2019-03-03T22:15:35.927Z,8.04
2019-03-03T22:18:05.508Z,8.05
2019-03-03T22:20:34.783Z,8.05
2019-03-03T22:23:04.459Z,8.05
2019-03-03T22:25:33.682Z,7.98
2019-03-03T22:28:02.943Z,7.96
2019-03-03T22:30:32.189Z,7.90
2019-03-03T22:33:01.423Z,7.96
2019-03-03T22:35:30.647Z,7.89
2019-03-03T22:37:59.895Z,7.92
2019-03-03T22:40:31.350Z,7.95
2019-03-03T22:43:00.590Z,7.99
2019-03-03T22:45:29.823Z,7.94
2019-03-03T22:47:59.127Z,7.87
2019-03-03T22:50:28.342Z,7.91
2019-03-03T22:52:57.618Z,7.98
2019-03-03T22:55:26.847Z,7.99
2019-03-03T22:57:56.090Z,7.98
2019-03-03T23:00:45.110Z,7.95
2019-03-03T23:03:17.355Z,7.92
2019-03-03T23:05:55.586Z,7.84
2019-03-03T23:08:30.442Z,7.87
2019-03-03T23:11:37.021Z,7.86
2019-03-03T23:14:28.972Z,7.73
2019-03-03T23:17:39.472Z,7.63
2019-03-03T23:20:20.101Z,7.70
2019-03-03T23:23:20.935Z,7.72
2019-03-03T23:25:51.644Z,7.67
2019-03-03T23:28:22.182Z,7.60
2019-03-03T23:30:52.300Z,7.51
2019-03-03T23:33:21.526Z,7.49
2019-03-03T23:35:51.320Z,7.53
2019-03-03T23:38:20.629Z,7.56
2019-03-03T23:40:49.886Z,7.60
2019-03-03T23:43:19.307Z,7.69
2019-03-03T23:45:48.847Z,7.73
2019-03-03T23:48:18.095Z,7.74
2019-03-03T23:50:47.672Z,7.77
2019-03-03T23:53:16.901Z,7.81
2019-03-03T23:55:46.147Z,7.78
2019-03-03T23:58:17.385Z,7.83
